Time;durP1;ratioP1;P1;durP2;ratioP2;P2;SDS_P1;SDS_P2;PMS_P1;PMS_P2;Temp;Humidity;BMP_temperature;BMP_pressure;BME280_temperature;BME280_humidity;BME280_pressure;Samples;Min_cycle;Max_cycle;Signal;HPM_P1;HPM_P2
2021/07/30 00:01:04;;;;;;;3.75;2.08;;;;;;;22.57;50.40;100337.41;4946617;28;20037;-73
2021/07/30 00:03:30;;;;;;;3.30;1.98;;;;;;;22.57;50.58;100337.41;4950731;28;20525;-72
2021/07/30 00:05:55;;;;;;;3.38;1.88;;;;;;;22.56;50.36;100330.41;4950931;28;20465;-72
2021/07/30 00:08:20;;;;;;;3.08;1.85;;;;;;;22.56;50.43;100330.41;4948945;28;20186;-72
2021/07/30 00:10:47;;;;;;;2.63;1.70;;;;;;;22.56;50.50;100335.75;4951317;28;20074;-72
2021/07/30 00:13:13;;;;;;;2.67;1.85;;;;;;;22.56;50.46;100325.06;4950055;28;20103;-72
2021/07/30 00:15:39;;;;;;;2.38;1.67;;;;;;;22.56;50.61;100325.88;4938818;29;20027;-72
2021/07/30 00:18:05;;;;;;;3.63;1.92;;;;;;;22.56;50.47;100323.19;4950449;28;20389;-72
2021/07/30 00:20:30;;;;;;;4.25;2.42;;;;;;;22.57;50.59;100310.69;4924348;28;20162;-72
2021/07/30 00:22:56;;;;;;;3.35;1.95;;;;;;;22.56;50.62;100314.34;4968078;28;20066;-73
2021/07/30 00:25:22;;;;;;;3.03;1.80;;;;;;;22.56;50.38;100312.50;4968613;28;20134;-73
2021/07/30 00:27:47;;;;;;;2.90;1.67;;;;;;;22.55;50.48;100308.19;4969793;28;20046;-72
2021/07/30 00:30:13;;;;;;;3.33;2.00;;;;;;;22.56;50.45;100304.47;4950810;28;20066;-72
2021/07/30 00:32:39;;;;;;;3.20;1.95;;;;;;;22.56;50.31;100309.00;4969925;28;20035;-72
2021/07/30 00:35:05;;;;;;;3.38;1.80;;;;;;;22.55;50.37;100300.19;4968263;28;20031;-72
2021/07/30 00:37:31;;;;;;;3.13;1.77;;;;;;;22.56;50.76;100301.00;4952528;28;20033;-72
2021/07/30 00:39:56;;;;;;;3.78;2.20;;;;;;;22.57;50.97;100299.97;4951372;28;20038;-72
2021/07/30 00:42:22;;;;;;;3.10;1.85;;;;;;;22.57;50.95;100300.78;4968569;28;20256;-72
2021/07/30 00:44:47;;;;;;;3.95;2.25;;;;;;;22.57;51.07;100295.44;4963478;28;20035;-72
2021/07/30 00:47:13;;;;;;;4.85;1.75;;;;;;;22.57;51.44;100295.44;4933154;29;20338;-72
2021/07/30 00:49:39;;;;;;;4.25;2.10;;;;;;;22.58;51.56;100291.72;4950291;28;20541;-72
2021/07/30 00:52:05;;;;;;;3.53;1.95;;;;;;;22.57;52.02;100290.09;4950456;28;20039;-72
2021/07/30 00:54:31;;;;;;;4.68;2.20;;;;;;;22.57;52.10;100298.13;4932066;28;20043;-72
2021/07/30 00:56:56;;;;;;;2.88;1.75;;;;;;;22.58;51.79;100290.91;4950656;28;20122;-72
2021/07/30 00:59:23;;;;;;;3.83;2.00;;;;;;;22.58;52.12;100283.72;4932573;28;20051;-72
2021/07/30 01:01:50;;;;;;;4.72;1.73;;;;;;;22.58;51.66;100297.06;4946599;28;20521;-72
2021/07/30 01:04:15;;;;;;;3.90;1.90;;;;;;;22.57;52.01;100298.13;4932802;29;20130;-72
2021/07/30 01:06:41;;;;;;;2.92;1.92;;;;;;;22.57;52.00;100289.28;4933158;29;20560;-72
2021/07/30 01:09:07;;;;;;;2.95;1.90;;;;;;;22.58;52.18;100288.25;4949184;28;20039;-72
2021/07/30 01:11:33;;;;;;;3.50;2.17;;;;;;;22.58;52.02;100294.41;4950659;28;20095;-72
2021/07/30 01:13:59;;;;;;;2.47;1.83;;;;;;;22.58;51.78;100293.59;4950138;28;20035;-72
2021/07/30 01:16:24;;;;;;;2.72;1.85;;;;;;;22.57;52.25;100289.28;4949933;28;20775;-73
2021/07/30 01:18:49;;;;;;;3.03;1.85;;;;;;;22.58;51.95;100293.59;4950321;28;20721;-72
2021/07/30 01:21:28;;;;;;;3.63;1.83;;;;;;;22.56;52.16;100292.97;4962519;28;20035;-72
2021/07/30 01:23:54;;;;;;;4.30;1.88;;;;;;;22.58;51.80;100286.38;4968021;28;20062;-72
2021/07/30 01:26:21;;;;;;;2.85;1.90;;;;;;;22.58;51.57;100286.38;4951195;28;20034;-72
2021/07/30 01:28:47;;;;;;;3.38;1.80;;;;;;;22.58;51.71;100281.03;4968172;28;20066;-72
2021/07/30 01:31:13;;;;;;;3.30;1.90;;;;;;;22.59;51.48;100287.19;4968726;28;20070;-72
2021/07/30 01:33:38;;;;;;;4.00;1.73;;;;;;;22.57;51.71;100282.09;4967755;28;20147;-72
2021/07/30 01:36:04;;;;;;;3.00;1.90;;;;;;;22.58;51.67;100280.22;4952101;28;20039;-72
2021/07/30 01:38:31;;;;;;;2.60;1.80;;;;;;;22.57;51.55;100279.41;4966801;28;20508;-73
2021/07/30 01:41:08;;;;;;;2.97;1.90;;;;;;;22.58;51.61;100283.72;4970172;28;20476;-72
2021/07/30 01:43:38;;;;;;;2.28;1.50;;;;;;;22.57;51.59;100273.25;4971838;28;20104;-72
2021/07/30 01:46:04;;;;;;;3.03;1.98;;;;;;;22.57;51.43;100271.38;4939824;28;20161;-72
2021/07/30 01:48:29;;;;;;;3.47;1.70;;;;;;;22.58;51.66;100277.56;4953346;28;20083;-72
2021/07/30 01:50:55;;;;;;;2.88;1.85;;;;;;;22.57;51.56;100266.03;4953054;28;20038;-73
2021/07/30 01:53:20;;;;;;;3.17;1.90;;;;;;;22.58;51.85;100282.91;4935233;29;20452;-72
2021/07/30 01:55:46;;;;;;;3.08;1.80;;;;;;;22.57;51.83;100271.38;4953793;28;20441;-72
2021/07/30 01:58:12;;;;;;;2.28;1.58;;;;;;;22.57;51.75;100271.38;4935873;29;20547;-72
2021/07/30 02:00:37;;;;;;;3.15;1.73;;;;;;;22.57;51.59;100274.06;4948746;28;20039;-70
2021/07/30 02:03:03;;;;;;;2.75;1.60;;;;;;;22.58;51.72;100265.00;4937365;28;20036;-72
2021/07/30 02:05:28;;;;;;;3.30;1.70;;;;;;;22.58;51.85;100267.66;4917266;29;20062;-72
2021/07/30 02:07:54;;;;;;;3.17;1.80;;;;;;;22.57;51.66;100274.06;4949653;28;20485;-72
2021/07/30 02:10:19;;;;;;;3.53;1.85;;;;;;;22.57;52.05;100268.72;4951497;29;20027;-72
2021/07/30 02:15:48;;;;;;;2.25;1.52;;;;;;;22.57;51.98;100268.72;4894397;29;20111;-72
2021/07/30 02:18:14;;;;;;;2.67;1.52;;;;;;;22.58;51.47;100266.84;4905271;29;20506;-72
2021/07/30 02:20:39;;;;;;;2.42;1.52;;;;;;;22.57;51.90;100268.72;4904034;29;20395;-73
2021/07/30 02:23:04;;;;;;;3.00;1.80;;;;;;;22.58;51.44;100262.31;4950650;28;20104;-73
2021/07/30 02:25:30;;;;;;;2.33;1.60;;;;;;;22.57;51.43;100268.72;4935081;29;20039;-73
2021/07/30 02:27:55;;;;;;;2.88;1.70;;;;;;;22.57;51.42;100260.69;4952340;29;20039;-72
2021/07/30 02:30:21;;;;;;;2.58;1.48;;;;;;;22.57;51.60;100247.34;4935032;29;20504;-73
2021/07/30 02:32:46;;;;;;;2.50;1.65;;;;;;;22.57;52.00;100252.69;4952817;29;20043;-73
2021/07/30 02:35:11;;;;;;;3.10;1.63;;;;;;;22.58;51.50;100248.16;4952500;29;20131;-72
2021/07/30 02:37:37;;;;;;;3.25;1.80;;;;;;;22.57;51.94;100241.16;4935024;29;20031;-72
2021/07/30 02:40:03;;;;;;;2.13;1.40;;;;;;;22.56;51.65;100240.31;4951637;29;20038;-72
2021/07/30 02:42:28;;;;;;;2.05;1.40;;;;;;;22.57;51.81;100244.66;4952116;29;20035;-72
2021/07/30 02:44:54;;;;;;;2.70;1.40;;;;;;;22.57;51.34;100241.16;4930251;29;20061;-72
2021/07/30 02:47:19;;;;;;;1.98;1.48;;;;;;;22.57;51.63;100241.16;4952588;29;20067;-72
2021/07/30 02:49:45;;;;;;;2.53;1.70;;;;;;;22.56;51.44;100234.97;4935114;29;20051;-72
2021/07/30 02:52:10;;;;;;;2.55;1.45;;;;;;;22.56;51.52;100240.31;4952167;28;20043;-73
2021/07/30 02:54:35;;;;;;;2.58;1.60;;;;;;;22.58;51.65;100240.13;4933908;29;20489;-71
2021/07/30 02:57:01;;;;;;;2.67;1.60;;;;;;;22.57;51.48;100238.50;4935167;29;20114;-72
2021/07/30 02:59:26;;;;;;;2.55;1.67;;;;;;;22.57;51.33;100231.28;4952140;29;20130;-72
2021/07/30 03:01:52;;;;;;;2.40;1.67;;;;;;;22.58;51.71;100237.44;4934166;29;20392;-73
2021/07/30 03:04:17;;;;;;;5.53;1.63;;;;;;;22.57;51.71;100233.97;4934591;29;20558;-72
2021/07/30 03:06:43;;;;;;;4.38;1.70;;;;;;;22.57;51.40;100227.81;4935079;29;20071;-72
2021/07/30 03:09:08;;;;;;;2.33;1.48;;;;;;;22.57;51.89;100233.16;4951097;29;20094;-73
2021/07/30 03:11:34;;;;;;;2.35;1.67;;;;;;;22.56;51.71;100232.31;4941983;29;20046;-72
2021/07/30 03:13:59;;;;;;;2.60;1.42;;;;;;;22.56;51.79;100234.97;4947876;29;20091;-73
2021/07/30 03:16:24;;;;;;;2.88;1.80;;;;;;;22.57;51.95;100238.50;4951741;29;20746;-73
2021/07/30 03:18:50;;;;;;;2.33;1.50;;;;;;;22.56;52.00;100237.66;4934213;29;20043;-73
2021/07/30 03:21:15;;;;;;;2.00;1.50;;;;;;;22.57;51.77;100236.63;4951741;28;20039;-72
2021/07/30 03:23:41;;;;;;;3.00;1.90;;;;;;;22.57;51.67;100238.50;4951041;29;20170;-72
2021/07/30 03:26:06;;;;;;;3.05;1.52;;;;;;;22.56;51.64;100237.66;4952036;29;20024;-72
2021/07/30 03:28:31;;;;;;;2.35;1.65;;;;;;;22.56;51.67;100240.31;4899416;29;20032;-73
2021/07/30 03:31:01;;;;;;;3.92;1.67;;;;;;;22.56;51.63;100242.19;4929093;29;20036;-72
2021/07/30 03:33:27;;;;;;;2.65;1.83;;;;;;;22.57;51.93;100236.63;4951285;28;20120;-73
2021/07/30 03:35:52;;;;;;;3.08;1.80;;;;;;;22.57;51.86;100238.50;4951371;29;20050;-72
2021/07/30 03:38:18;;;;;;;2.78;1.65;;;;;;;22.56;51.64;100236.84;4950882;29;20241;-72
2021/07/30 03:40:43;;;;;;;2.75;1.75;;;;;;;22.57;51.83;100238.50;4951141;29;20370;-72
2021/07/30 03:43:09;;;;;;;1.90;1.58;;;;;;;22.55;51.67;100238.69;4951654;29;20045;-72
2021/07/30 03:45:35;;;;;;;1.98;1.30;;;;;;;22.55;51.90;100238.69;4951775;29;20144;-72
2021/07/30 03:48:00;;;;;;;2.20;1.55;;;;;;;22.56;52.13;100234.97;4951164;29;20485;-72
2021/07/30 03:50:26;;;;;;;2.38;1.40;;;;;;;22.56;51.67;100237.66;4951254;29;20066;-72
2021/07/30 03:52:51;;;;;;;3.33;1.88;;;;;;;22.56;51.94;100243.00;4950636;29;20031;-72
2021/07/30 03:55:17;;;;;;;2.83;1.90;;;;;;;22.57;52.13;100246.50;4933545;29;20493;-72
2021/07/30 03:57:42;;;;;;;2.38;1.55;;;;;;;22.56;51.79;100240.31;4949767;29;20389;-72
2021/07/30 04:00:08;;;;;;;2.28;1.63;;;;;;;22.56;51.99;100239.50;4950675;29;20039;-73
2021/07/30 04:02:35;;;;;;;2.58;1.90;;;;;;;22.56;51.91;100237.66;4950540;29;20043;-72
2021/07/30 04:05:00;;;;;;;2.30;1.80;;;;;;;22.55;52.16;100238.69;4950416;28;20039;-73
2021/07/30 04:07:25;;;;;;;2.45;1.52;;;;;;;22.56;51.67;100236.84;4951015;29;20062;-72
2021/07/30 04:09:54;;;;;;;1.90;1.50;;;;;;;22.56;51.68;100243.00;4932558;29;20035;-72
2021/07/30 04:12:19;;;;;;;2.28;1.73;;;;;;;22.56;52.03;100236.84;4950802;28;20046;-72
2021/07/30 04:14:45;;;;;;;2.15;1.50;;;;;;;22.56;52.02;100236.84;4950589;29;20027;-73
2021/07/30 04:17:11;;;;;;;2.60;1.67;;;;;;;22.55;52.01;100238.69;4950759;28;20039;-73
2021/07/30 04:19:36;;;;;;;2.78;1.65;;;;;;;22.55;52.10;100238.69;4950804;29;20774;-73
2021/07/30 04:22:02;;;;;;;2.45;1.50;;;;;;;22.55;52.13;100238.69;4950975;29;20144;-72
2021/07/30 04:24:28;;;;;;;2.70;1.60;;;;;;;22.56;51.97;100239.50;4949437;29;20453;-72
2021/07/30 04:26:53;;;;;;;2.15;1.40;;;;;;;22.55;51.66;100244.03;4951506;29;20506;-73
2021/07/30 04:29:19;;;;;;;2.97;1.70;;;;;;;22.56;51.86;100242.19;4950075;29;20554;-72
2021/07/30 04:31:44;;;;;;;1.58;1.30;;;;;;;22.55;51.65;100246.72;4926298;28;20042;-72
2021/07/30 04:34:10;;;;;;;2.47;1.60;;;;;;;22.55;51.77;100253.94;4936440;29;20438;-72
2021/07/30 04:36:35;;;;;;;2.53;1.35;;;;;;;22.55;51.76;100240.56;4914557;29;20769;-73
2021/07/30 04:39:01;;;;;;;2.83;1.60;;;;;;;22.55;51.75;100241.38;4926922;29;20586;-72
2021/07/30 04:41:26;;;;;;;2.67;1.50;;;;;;;22.55;51.50;100246.72;4950674;29;20126;-73
2021/07/30 04:43:52;;;;;;;2.55;1.60;;;;;;;22.54;51.84;100247.75;4950875;29;20054;-73
2021/07/30 04:46:18;;;;;;;2.40;1.50;;;;;;;22.55;51.31;100246.72;4932713;29;20039;-72
2021/07/30 04:48:44;;;;;;;2.05;1.40;;;;;;;22.55;51.49;100249.38;4950743;29;20027;-72
2021/07/30 04:51:11;;;;;;;2.35;1.50;;;;;;;22.55;51.90;100243.22;4916266;28;20122;-72
2021/07/30 04:53:36;;;;;;;1.95;1.38;;;;;;;22.55;51.91;100251.25;4949826;29;20057;-72
2021/07/30 04:56:02;;;;;;;2.03;1.60;;;;;;;22.55;51.75;100252.06;4950131;29;20130;-72
2021/07/30 04:58:27;;;;;;;4.00;1.92;;;;;;;22.55;51.51;100254.75;4950096;29;20038;-72
2021/07/30 05:00:53;;;;;;;2.30;1.42;;;;;;;22.54;51.67;100253.13;4949368;29;20724;-72
2021/07/30 05:03:18;;;;;;;3.78;2.00;;;;;;;22.54;51.81;100260.31;4949362;29;20081;-72
2021/07/30 05:05:44;;;;;;;2.25;1.42;;;;;;;22.55;51.91;100261.94;4950932;29;20086;-71
2021/07/30 05:08:09;;;;;;;2.75;1.40;;;;;;;22.54;51.83;100258.47;4949535;29;20043;-72
2021/07/30 05:10:35;;;;;;;4.40;1.70;;;;;;;22.54;51.76;100266.47;4949788;29;20035;-72
2021/07/30 05:13:00;;;;;;;3.25;1.65;;;;;;;22.53;51.75;100272.88;4949984;29;20403;-72
2021/07/30 05:15:26;;;;;;;2.10;1.60;;;;;;;22.54;51.61;100273.69;4951473;28;20488;-72
2021/07/30 05:17:51;;;;;;;2.30;1.60;;;;;;;22.53;51.64;100272.88;4937473;29;20393;-74
2021/07/30 05:20:17;;;;;;;2.60;1.50;;;;;;;22.53;51.85;100272.88;4953779;29;20203;-71
2021/07/30 05:22:42;;;;;;;2.08;1.45;;;;;;;22.53;51.85;100274.72;4953681;28;20138;-73
2021/07/30 05:25:11;;;;;;;2.88;1.40;;;;;;;22.53;51.71;100278.22;4953218;29;20099;-72
2021/07/30 05:27:37;;;;;;;2.45;1.60;;;;;;;22.54;51.52;100279.03;4936146;29;20054;-72
2021/07/30 05:30:03;;;;;;;1.90;1.45;;;;;;;22.53;51.85;100283.56;4954638;29;20043;-72
2021/07/30 05:32:28;;;;;;;2.88;1.50;;;;;;;22.54;51.93;100284.38;4936195;29;20544;-73
2021/07/30 05:34:54;;;;;;;1.65;1.35;;;;;;;22.54;51.82;100279.03;4953900;29;20055;-72
2021/07/30 05:37:19;;;;;;;1.90;1.40;;;;;;;22.53;51.94;100288.91;4953303;29;20031;-72
2021/07/30 05:39:45;;;;;;;2.40;1.58;;;;;;;22.53;52.05;100288.09;4935875;28;20089;-72
2021/07/30 05:42:10;;;;;;;2.33;1.63;;;;;;;22.52;51.51;100287.28;4943711;29;20039;-73
2021/07/30 05:44:36;;;;;;;2.13;1.45;;;;;;;22.53;51.83;100288.91;4936158;29;20042;-70
2021/07/30 05:47:03;;;;;;;2.75;1.60;;;;;;;22.53;51.97;100291.59;4953344;29;20037;-71
2021/07/30 05:49:28;;;;;;;2.17;1.50;;;;;;;22.53;51.83;100294.25;4935464;29;20043;-70
2021/07/30 05:51:54;;;;;;;2.42;1.52;;;;;;;22.52;52.09;100295.28;4953784;29;20497;-69
2021/07/30 05:54:20;;;;;;;2.60;1.55;;;;;;;22.53;51.96;100298.78;4935110;29;20027;-73
2021/07/30 05:56:46;;;;;;;2.13;1.40;;;;;;;22.54;52.41;100303.09;4949287;29;20043;-72
2021/07/30 05:59:11;;;;;;;2.35;1.70;;;;;;;22.53;52.42;100298.78;4952966;29;20032;-72
2021/07/30 06:01:37;;;;;;;2.35;1.70;;;;;;;22.54;52.13;100300.41;4951587;28;20031;-72
2021/07/30 06:04:02;;;;;;;4.80;1.50;;;;;;;22.53;52.39;100298.78;4953663;29;20091;-72
2021/07/30 06:06:28;;;;;;;2.60;1.50;;;;;;;22.53;52.19;100296.94;4934971;29;20038;-72
2021/07/30 06:08:53;;;;;;;3.83;1.60;;;;;;;22.53;52.53;100299.59;4952556;29;20039;-72
2021/07/30 06:11:19;;;;;;;1.98;1.60;;;;;;;22.53;52.13;100304.13;4936170;29;20046;-70
2021/07/30 06:13:44;;;;;;;3.20;1.75;;;;;;;22.52;52.54;100306.00;4952893;29;20035;-72
2021/07/30 06:16:10;;;;;;;2.00;1.50;;;;;;;22.53;52.09;100320.16;4953495;29;20103;-73
2021/07/30 06:18:37;;;;;;;2.22;1.58;;;;;;;22.52;52.31;100314.00;4935369;29;20372;-73
2021/07/30 06:21:04;;;;;;;2.80;1.50;;;;;;;22.52;52.12;100314.00;4935846;29;20067;-72
2021/07/30 06:23:29;;;;;;;2.53;1.73;;;;;;;22.53;52.45;100320.16;4951985;28;20058;-72
2021/07/30 06:25:55;;;;;;;3.03;1.70;;;;;;;22.52;52.38;100319.34;4952917;29;20035;-72
2021/07/30 06:28:20;;;;;;;3.45;1.88;;;;;;;22.52;52.34;100319.34;4951669;28;20043;-72
2021/07/30 06:30:46;;;;;;;2.42;1.50;;;;;;;22.52;52.46;100324.69;4924609;29;20122;-72
2021/07/30 06:33:12;;;;;;;2.35;1.60;;;;;;;22.52;52.09;100322.03;4952888;29;20485;-72
2021/07/30 06:35:38;;;;;;;2.80;1.70;;;;;;;22.52;52.24;100319.34;4935302;29;20051;-72
2021/07/30 06:38:03;;;;;;;3.05;1.52;;;;;;;22.52;52.47;100321.22;4935110;29;20508;-72
2021/07/30 06:40:29;;;;;;;1.98;1.48;;;;;;;22.52;52.03;100322.03;4952533;29;20035;-72
2021/07/30 06:42:54;;;;;;;3.05;1.50;;;;;;;22.51;52.09;100317.72;4935157;29;20413;-72
2021/07/30 06:45:20;;;;;;;3.42;1.85;;;;;;;22.52;52.12;100327.38;4952934;29;20045;-70
2021/07/30 06:47:45;;;;;;;3.20;1.75;;;;;;;22.51;52.20;100323.06;4952348;29;20043;-72
2021/07/30 06:50:11;;;;;;;7.93;1.80;;;;;;;22.51;52.38;100325.75;4925961;28;20038;-67
2021/07/30 06:52:36;;;;;;;4.25;1.70;;;;;;;22.52;52.26;100322.03;4940148;29;20470;-72
2021/07/30 06:55:03;;;;;;;3.15;1.80;;;;;;;22.52;52.24;100323.88;4934472;29;20044;-73
2021/07/30 06:57:28;;;;;;;4.80;1.90;;;;;;;22.52;52.66;100324.69;4951797;29;20054;-69
2021/07/30 06:59:54;;;;;;;4.25;1.80;;;;;;;22.52;52.79;100322.03;4952440;29;20151;-71
2021/07/30 07:02:19;;;;;;;4.60;1.98;;;;;;;22.52;52.51;100327.38;4951252;29;20155;-69
2021/07/30 07:04:45;;;;;;;4.38;2.00;;;;;;;22.53;52.45;100328.19;4934994;29;20457;-72
2021/07/30 07:07:10;;;;;;;4.80;2.05;;;;;;;22.52;52.61;100324.69;4952747;29;20401;-72
2021/07/30 07:09:36;;;;;;;4.75;1.70;;;;;;;22.53;53.09;100329.00;4964358;29;20035;-72
2021/07/30 07:12:02;;;;;;;5.30;2.28;;;;;;;22.53;53.00;100326.31;4951048;29;20430;-72
2021/07/30 07:14:28;;;;;;;4.55;2.03;;;;;;;22.53;52.96;100329.00;4928951;29;20044;-73
2021/07/30 07:16:54;;;;;;;10.48;2.00;;;;;;;22.53;53.25;100320.97;4928342;29;20065;-72
2021/07/30 07:19:19;;;;;;;4.30;1.98;;;;;;;22.54;53.63;100327.16;4951637;29;20432;-73
2021/07/30 07:21:45;;;;;;;4.72;2.22;;;;;;;22.53;53.55;100337.03;4951646;29;20138;-72
2021/07/30 07:24:10;;;;;;;6.38;1.90;;;;;;;22.53;53.47;100333.53;4948307;29;20470;-72
2021/07/30 07:26:38;;;;;;;6.75;2.20;;;;;;;22.53;52.92;100337.03;4930035;28;20134;-71
2021/07/30 07:29:04;;;;;;;3.17;1.88;;;;;;;22.53;53.10;100338.88;4930569;29;20043;-72
2021/07/30 07:31:30;;;;;;;9.70;2.10;;;;;;;22.52;53.06;100338.06;4947811;29;20039;-72
2021/07/30 07:33:55;;;;;;;5.07;1.83;;;;;;;22.53;53.55;100341.56;4950299;29;20098;-72
2021/07/30 07:36:20;;;;;;;6.45;2.28;;;;;;;22.51;53.54;100344.47;4951424;29;20452;-71
2021/07/30 07:38:46;;;;;;;5.00;2.20;;;;;;;22.52;53.45;100340.75;4931295;29;20486;-72
2021/07/30 07:41:12;;;;;;;7.10;1.98;;;;;;;22.53;53.65;100346.91;4948198;29;20683;-72
2021/07/30 07:43:38;;;;;;;5.78;2.08;;;;;;;22.52;53.63;100346.09;4950840;29;20134;-72
2021/07/30 07:46:03;;;;;;;6.32;2.10;;;;;;;22.53;53.77;100352.25;4950101;29;20046;-72
2021/07/30 07:48:29;;;;;;;7.03;2.78;;;;;;;22.52;54.05;100359.44;4950946;29;20061;-70
2021/07/30 07:50:54;;;;;;;8.10;3.28;;;;;;;22.52;53.92;100359.44;4951191;29;20039;-72
2021/07/30 07:53:20;;;;;;;7.10;3.00;;;;;;;22.52;54.48;100355.97;4950107;29;20050;-72
2021/07/30 07:55:46;;;;;;;12.30;3.00;;;;;;;22.52;54.57;100356.78;4951042;29;20042;-72
2021/07/30 07:58:12;;;;;;;16.30;3.25;;;;;;;22.53;54.48;100363.75;4931385;28;20132;-71
2021/07/30 08:00:39;;;;;;;18.40;3.40;;;;;;;22.53;54.87;100369.09;4949972;29;20108;-69
2021/07/30 08:03:05;;;;;;;13.88;3.40;;;;;;;22.54;54.64;100369.91;4932037;29;20465;-71
2021/07/30 08:05:30;;;;;;;9.85;3.22;;;;;;;22.53;54.65;100371.78;4933627;29;20029;-71
2021/07/30 08:07:56;;;;;;;11.30;4.18;;;;;;;22.54;54.91;100370.72;4932521;29;20510;-71
2021/07/30 08:10:21;;;;;;;12.35;3.72;;;;;;;22.55;55.28;100376.88;4949452;29;20417;-71
2021/07/30 08:12:47;;;;;;;13.48;4.45;;;;;;;22.54;55.39;100375.25;4949294;29;20046;-71
2021/07/30 08:15:13;;;;;;;12.20;4.40;;;;;;;22.55;55.45;100376.88;4950053;29;20054;-71
2021/07/30 08:17:39;;;;;;;9.93;3.15;;;;;;;22.55;54.90;100374.22;4932872;29;20039;-71
2021/07/30 08:20:06;;;;;;;19.08;3.90;;;;;;;22.54;54.62;100369.91;4916934;29;20039;-71
2021/07/30 08:22:31;;;;;;;7.60;3.08;;;;;;;22.53;54.88;100377.13;4948937;28;21297;-71
2021/07/30 08:24:57;;;;;;;10.15;3.58;;;;;;;22.53;54.19;100385.13;4941730;29;20043;-71
2021/07/30 08:27:22;;;;;;;8.52;3.53;;;;;;;22.52;54.24;100378.16;4940755;29;20139;-71
2021/07/30 08:29:48;;;;;;;8.57;3.20;;;;;;;22.52;54.40;100382.69;4950331;29;20050;-71
2021/07/30 08:32:14;;;;;;;10.52;3.45;;;;;;;22.50;54.13;100382.94;4950438;29;20031;-72
2021/07/30 08:34:40;;;;;;;11.25;3.50;;;;;;;22.51;54.16;100389.91;4948477;29;20038;-71
2021/07/30 08:37:07;;;;;;;8.35;3.15;;;;;;;22.50;53.71;100385.59;4950603;29;20043;-71
2021/07/30 08:39:32;;;;;;;9.23;3.20;;;;;;;22.50;53.72;100384.78;4949493;29;20055;-71
2021/07/30 08:42:00;;;;;;;6.38;2.30;;;;;;;22.49;53.77;100383.97;4946721;29;20042;-71
2021/07/30 08:44:27;;;;;;;7.07;3.13;;;;;;;22.49;53.84;100388.50;4948564;29;20043;-71
2021/07/30 08:46:52;;;;;;;8.02;3.10;;;;;;;22.49;53.87;100391.97;4950709;29;20038;-71
2021/07/30 08:49:18;;;;;;;7.80;2.90;;;;;;;22.48;53.37;100390.34;4950045;28;20055;-71
2021/07/30 08:51:47;;;;;;;4.10;2.30;;;;;;;22.47;53.66;100383.38;4949370;29;20774;-71
2021/07/30 08:54:16;;;;;;;7.20;2.47;;;;;;;22.46;53.61;100395.13;4949551;29;20027;-71
2021/07/30 08:56:41;;;;;;;5.95;2.50;;;;;;;22.47;53.67;100393.25;4949504;29;20031;-71
2021/07/30 08:59:08;;;;;;;5.78;2.53;;;;;;;22.47;53.62;100393.25;4949524;29;20773;-71
2021/07/30 09:01:36;;;;;;;6.90;2.70;;;;;;;22.46;53.69;100394.31;4947787;29;20043;-71
2021/07/30 09:04:01;;;;;;;5.28;2.58;;;;;;;22.47;53.37;100395.94;4950255;29;20047;-71
2021/07/30 09:06:27;;;;;;;8.40;2.40;;;;;;;22.46;53.46;100399.66;4949854;28;20066;-71
2021/07/30 09:09:01;;;;;;;4.97;2.13;;;;;;;22.44;53.53;100399.88;4948395;29;20127;-71
2021/07/30 09:11:34;;;;;;;5.28;2.50;;;;;;;22.45;53.61;100387.31;4952674;28;20114;-71
2021/07/30 09:14:05;;;;;;;3.83;2.00;;;;;;;22.45;53.58;100398.03;4932541;29;20047;-71
2021/07/30 09:16:45;;;;;;;4.35;2.47;;;;;;;22.46;53.12;100395.13;4950065;29;20141;-72
2021/07/30 09:19:11;;;;;;;6.10;2.80;;;;;;;22.47;53.21;100398.59;4949374;29;20027;-72
2021/07/30 09:21:36;;;;;;;8.50;2.80;;;;;;;22.46;53.53;100402.31;4949366;29;20051;-72
2021/07/30 09:24:10;;;;;;;4.90;2.50;;;;;;;22.44;53.59;100399.88;4948793;28;20110;-71
2021/07/30 09:26:38;;;;;;;3.63;2.13;;;;;;;22.45;53.33;100404.19;4949117;29;20127;-71
2021/07/30 09:29:10;;;;;;;5.40;2.08;;;;;;;22.46;53.65;100402.31;4950223;29;20039;-71
2021/07/30 09:31:38;;;;;;;6.63;2.60;;;;;;;22.45;53.39;100414.88;4949997;29;20088;-71
2021/07/30 09:34:17;;;;;;;3.80;2.50;;;;;;;22.43;53.43;100403.59;4949736;29;20119;-71
2021/07/30 09:36:49;;;;;;;8.65;3.13;;;;;;;22.44;53.29;100409.75;4939902;29;20131;-71
2021/07/30 09:39:15;;;;;;;8.15;3.25;;;;;;;22.44;53.49;100407.88;4948883;29;20106;-71
2021/07/30 09:41:54;;;;;;;5.75;3.00;;;;;;;22.41;53.59;100409.16;4950256;29;20027;-71
2021/07/30 09:44:20;;;;;;;5.47;2.88;;;;;;;22.44;53.65;100409.75;4949811;29;20039;-71
2021/07/30 09:47:06;;;;;;;6.68;2.80;;;;;;;22.40;53.36;100425.41;4950191;29;20772;-71
2021/07/30 09:49:39;;;;;;;8.32;2.92;;;;;;;22.42;53.28;100421.47;4949461;29;20062;-71
2021/07/30 09:52:09;;;;;;;7.15;2.92;;;;;;;22.44;53.39;100423.13;4950253;29;20024;-71
2021/07/30 09:54:35;;;;;;;9.52;3.53;;;;;;;22.42;53.10;100421.47;4948599;29;20034;-71
2021/07/30 09:57:05;;;;;;;6.03;3.03;;;;;;;22.43;53.58;100427.66;4950501;29;20138;-71
2021/07/30 09:59:36;;;;;;;7.68;2.78;;;;;;;22.43;53.44;100427.66;4949781;29;20039;-71
2021/07/30 10:02:05;;;;;;;6.47;2.65;;;;;;;22.42;53.36;100426.00;4950003;28;20039;-71
2021/07/30 10:04:32;;;;;;;6.85;2.90;;;;;;;22.43;53.22;100427.66;4952823;29;20110;-71
2021/07/30 10:07:00;;;;;;;6.45;2.95;;;;;;;22.42;53.57;100434.03;4953516;28;20118;-71
2021/07/30 10:09:26;;;;;;;7.70;3.00;;;;;;;22.42;53.49;100429.50;4953087;29;20560;-71
2021/07/30 10:11:52;;;;;;;6.97;2.90;;;;;;;22.42;53.36;100442.06;4935381;29;20358;-71
2021/07/30 10:14:25;;;;;;;5.65;3.08;;;;;;;22.42;53.43;100432.19;4952709;29;20042;-71
2021/07/30 10:17:02;;;;;;;4.57;2.50;;;;;;;22.40;53.05;100433.41;4953174;29;20035;-71
2021/07/30 10:19:30;;;;;;;6.18;2.70;;;;;;;22.42;52.99;100442.06;4935447;29;20121;-71
2021/07/30 10:22:01;;;;;;;5.15;2.72;;;;;;;22.41;53.36;100440.41;4953112;28;20134;-71
2021/07/30 10:24:29;;;;;;;5.13;3.10;;;;;;;22.41;53.53;100440.41;4951781;29;20028;-71
2021/07/30 10:27:02;;;;;;;5.43;2.83;;;;;;;22.39;53.32;100440.63;4952943;29;20098;-71
2021/07/30 10:30:04;;;;;;;4.63;2.58;;;;;;;22.36;53.53;100448.28;4952704;29;20043;-71
2021/07/30 10:32:48;;;;;;;4.93;3.05;;;;;;;22.37;53.14;100439.22;4952592;29;20686;-71
2021/07/30 10:35:26;;;;;;;4.78;2.42;;;;;;;22.39;53.42;100450.50;4953011;29;20039;-72
2021/07/30 10:38:16;;;;;;;6.57;3.15;;;;;;;22.35;53.49;100443.97;4952065;29;20031;-71
2021/07/30 10:41:02;;;;;;;6.55;2.60;;;;;;;22.39;53.11;100445.97;4952200;29;20035;-71
2021/07/30 10:43:28;;;;;;;4.70;2.50;;;;;;;22.39;53.44;100450.50;4951444;29;20046;-71
2021/07/30 10:46:08;;;;;;;5.03;2.45;;;;;;;22.37;53.27;100449.91;4952546;29;20059;-71
2021/07/30 10:48:37;;;;;;;6.25;2.53;;;;;;;22.39;53.14;100450.50;4942104;29;20117;-71
2021/07/30 10:51:38;;;;;;;3.95;2.30;;;;;;;22.39;53.30;100447.81;4952655;29;20038;-71
2021/07/30 10:54:05;;;;;;;5.05;2.53;;;;;;;22.39;53.16;100453.16;4951768;29;20054;-71
2021/07/30 10:56:31;;;;;;;3.55;2.10;;;;;;;22.39;53.09;100453.16;4950448;29;20035;-71
2021/07/30 10:58:57;;;;;;;4.68;2.70;;;;;;;22.39;53.35;100453.16;4952268;29;20477;-71
2021/07/30 11:01:28;;;;;;;4.03;2.47;;;;;;;22.38;53.04;100454.22;4949620;29;20114;-71
2021/07/30 11:03:54;;;;;;;3.70;2.22;;;;;;;22.39;53.12;100455.84;4952069;29;20050;-71
2021/07/30 11:06:28;;;;;;;4.18;2.47;;;;;;;22.39;53.30;100456.66;4952557;29;20032;-71
2021/07/30 11:09:05;;;;;;;4.10;2.40;;;;;;;22.37;53.24;100456.06;4940134;29;20047;-71
2021/07/30 11:11:57;;;;;;;4.15;2.38;;;;;;;22.36;53.48;100453.63;4952618;29;20031;-71
2021/07/30 11:14:29;;;;;;;4.78;2.50;;;;;;;22.38;53.10;100451.53;4951703;28;20039;-71
2021/07/30 11:16:58;;;;;;;5.30;2.40;;;;;;;22.38;53.36;100456.88;4952186;29;20035;-71
2021/07/30 11:19:33;;;;;;;4.75;2.28;;;;;;;22.39;53.01;100458.50;4934569;29;20077;-71
2021/07/30 11:22:16;;;;;;;4.65;2.20;;;;;;;22.37;53.48;100461.41;4952121;29;20552;-71
2021/07/30 11:24:52;;;;;;;4.22;2.30;;;;;;;22.34;53.19;100459.19;4951701;29;20030;-71
2021/07/30 11:27:20;;;;;;;3.95;1.98;;;;;;;22.38;53.51;100457.69;4940818;29;20513;-71